sensor_id;sensor_type;location;lat;lon;timestamp;pressure;altitude;pressure_sealevel;temperature;humidity
25232;BME280;13176;51.140;6.290;2023-08-06T00:01:13;99692.38;;;20.53;72.20
25232;BME280;13176;51.140;6.290;2023-08-06T00:03:41;99649.97;;;20.28;72.56
25232;BME280;13176;51.140;6.290;2023-08-06T00:06:08;99627.72;;;20.05;73.29
25232;BME280;13176;51.140;6.290;2023-08-06T00:08:34;99627.22;;;20.00;74.00
25232;BME280;13176;51.140;6.290;2023-08-06T00:11:01;99501.69;;;19.28;74.44
25232;BME280;13176;51.140;6.290;2023-08-06T00:13:27;99566.81;;;19.55;74.73
25232;BME280;13176;51.140;6.290;2023-08-06T00:15:54;99701.94;;;20.30;74.80
25232;BME280;13176;51.140;6.290;2023-08-06T00:18:20;99533.00;;;19.34;74.77
25232;BME280;13176;51.140;6.290;2023-08-06T00:20:47;99604.69;;;19.68;74.95
25232;BME280;13176;51.140;6.290;2023-08-06T00:23:13;99570.81;;;19.49;75.23
25232;BME280;13176;51.140;6.290;2023-08-06T00:25:40;99700.34;;;20.15;76.10
25232;BME280;13176;51.140;6.290;2023-08-06T00:28:07;99588.31;;;19.63;76.24
25232;BME280;13176;51.140;6.290;2023-08-06T00:30:35;99590.00;;;19.64;76.63
25232;BME280;13176;51.140;6.290;2023-08-06T00:33:02;99674.16;;;20.11;76.98
25232;BME280;13176;51.140;6.290;2023-08-06T00:35:29;99661.22;;;20.06;77.61
25232;BME280;13176;51.140;6.290;2023-08-06T00:37:56;99496.34;;;19.03;77.27
25232;BME280;13176;51.140;6.290;2023-08-06T00:40:22;99546.97;;;19.24;77.54
25232;BME280;13176;51.140;6.290;2023-08-06T00:42:49;99683.47;;;20.04;77.91
25232;BME280;13176;51.140;6.290;2023-08-06T00:45:16;99691.75;;;20.24;77.34
25232;BME280;13176;51.140;6.290;2023-08-06T00:47:42;99545.31;;;19.48;76.22
25232;BME280;13176;51.140;6.290;2023-08-06T00:50:09;99584.28;;;19.70;76.03
25232;BME280;13176;51.140;6.290;2023-08-06T00:52:36;99560.44;;;19.70;75.70
25232;BME280;13176;51.140;6.290;2023-08-06T00:55:04;99692.16;;;20.43;75.55
25232;BME280;13176;51.140;6.290;2023-08-06T00:57:30;99683.06;;;20.35;75.47
25232;BME280;13176;51.140;6.290;2023-08-06T00:59:57;99528.69;;;19.46;75.42
25232;BME280;13176;51.140;6.290;2023-08-06T01:02:24;99548.91;;;19.47;75.10
25232;BME280;13176;51.140;6.290;2023-08-06T01:04:50;99543.41;;;19.50;75.13
25232;BME280;13176;51.140;6.290;2023-08-06T01:15:54;99574.31;;;19.86;74.56
25232;BME280;13176;51.140;6.290;2023-08-06T01:18:22;99667.81;;;20.38;74.65
25232;BME280;13176;51.140;6.290;2023-08-06T01:20:49;99545.72;;;19.66;74.84
25232;BME280;13176;51.140;6.290;2023-08-06T01:23:19;99509.81;;;19.38;75.11
25232;BME280;13176;51.140;6.290;2023-08-06T01:25:48;99682.00;;;20.37;76.03
25232;BME280;13176;51.140;6.290;2023-08-06T01:31:05;99643.38;;;19.96;76.77
25232;BME280;13176;51.140;6.290;2023-08-06T01:33:34;99668.75;;;20.12;77.73
25232;BME280;13176;51.140;6.290;2023-08-06T01:36:03;99583.31;;;19.59;77.88
25232;BME280;13176;51.140;6.290;2023-08-06T01:38:31;99591.66;;;19.53;78.05
25232;BME280;13176;51.140;6.290;2023-08-06T01:40:57;99493.22;;;18.97;78.62
25232;BME280;13176;51.140;6.290;2023-08-06T01:43:24;99588.53;;;19.60;78.74
25232;BME280;13176;51.140;6.290;2023-08-06T01:45:50;99601.09;;;19.69;78.46
25232;BME280;13176;51.140;6.290;2023-08-06T01:48:18;99537.25;;;19.37;78.37
25232;BME280;13176;51.140;6.290;2023-08-06T01:50:44;99669.50;;;20.14;78.60
25232;BME280;13176;51.140;6.290;2023-08-06T01:53:11;99530.03;;;19.26;78.51
25232;BME280;13176;51.140;6.290;2023-08-06T01:55:37;99585.97;;;19.71;79.05
25232;BME280;13176;51.140;6.290;2023-08-06T01:58:04;99567.97;;;19.52;79.20
25232;BME280;13176;51.140;6.290;2023-08-06T02:00:30;99656.56;;;20.10;79.37
25232;BME280;13176;51.140;6.290;2023-08-06T02:02:57;99657.41;;;20.10;79.19
25232;BME280;13176;51.140;6.290;2023-08-06T02:05:23;99550.19;;;19.53;79.03
25232;BME280;13176;51.140;6.290;2023-08-06T02:07:50;99655.28;;;20.03;79.62
25232;BME280;13176;51.140;6.290;2023-08-06T02:10:16;99636.13;;;19.99;79.76
25232;BME280;13176;51.140;6.290;2023-08-06T02:12:42;99585.66;;;19.63;79.76
25232;BME280;13176;51.140;6.290;2023-08-06T02:15:09;99626.66;;;19.95;79.60
25232;BME280;13176;51.140;6.290;2023-08-06T02:17:36;99526.88;;;19.34;79.58
25232;BME280;13176;51.140;6.290;2023-08-06T02:20:02;99505.06;;;19.18;79.43
25232;BME280;13176;51.140;6.290;2023-08-06T02:22:29;99529.22;;;19.26;79.65
25232;BME280;13176;51.140;6.290;2023-08-06T02:24:55;99620.50;;;19.82;79.95
25232;BME280;13176;51.140;6.290;2023-08-06T02:27:22;99584.91;;;19.61;79.92
25232;BME280;13176;51.140;6.290;2023-08-06T02:29:48;99570.81;;;19.49;80.17
25232;BME280;13176;51.140;6.290;2023-08-06T02:32:15;99579.84;;;19.58;79.91
25232;BME280;13176;51.140;6.290;2023-08-06T02:34:41;99603.13;;;19.78;80.06
25232;BME280;13176;51.140;6.290;2023-08-06T02:37:08;99512.06;;;19.19;80.29
25232;BME280;13176;51.140;6.290;2023-08-06T02:39:34;99461.19;;;18.89;79.80
25232;BME280;13176;51.140;6.290;2023-08-06T02:42:02;99589.56;;;19.70;80.50
25232;BME280;13176;51.140;6.290;2023-08-06T02:44:31;99613.50;;;19.81;80.22
25232;BME280;13176;51.140;6.290;2023-08-06T02:46:58;99531.84;;;19.26;79.76
25232;BME280;13176;51.140;6.290;2023-08-06T02:49:24;99598.03;;;19.63;80.33
25232;BME280;13176;51.140;6.290;2023-08-06T02:51:51;99592.31;;;19.56;81.35
25232;BME280;13176;51.140;6.290;2023-08-06T02:54:19;99632.78;;;19.71;81.67
25232;BME280;13176;51.140;6.290;2023-08-06T02:56:45;99601.41;;;19.52;81.95
25232;BME280;13176;51.140;6.290;2023-08-06T02:59:13;99514.16;;;19.14;81.48
25232;BME280;13176;51.140;6.290;2023-08-06T03:01:40;99600.34;;;19.67;82.00
25232;BME280;13176;51.140;6.290;2023-08-06T03:04:07;99506.50;;;19.09;81.99
25232;BME280;13176;51.140;6.290;2023-08-06T03:06:33;99509.22;;;19.08;82.12
25232;BME280;13176;51.140;6.290;2023-08-06T03:09:00;99608.44;;;19.78;82.25
25232;BME280;13176;51.140;6.290;2023-08-06T03:11:26;99506.44;;;19.36;81.15
25232;BME280;13176;51.140;6.290;2023-08-06T03:13:53;99532.41;;;19.55;80.54
25232;BME280;13176;51.140;6.290;2023-08-06T03:16:19;99607.38;;;19.93;80.87
25232;BME280;13176;51.140;6.290;2023-08-06T03:18:46;99583.09;;;19.87;80.78
25232;BME280;13176;51.140;6.290;2023-08-06T03:21:13;99489.81;;;19.34;80.62
25232;BME280;13176;51.140;6.290;2023-08-06T03:23:42;99580.25;;;19.90;80.62
25232;BME280;13176;51.140;6.290;2023-08-06T03:26:09;99514.09;;;19.52;80.62
25232;BME280;13176;51.140;6.290;2023-08-06T03:28:35;99588.63;;;19.96;81.20
25232;BME280;13176;51.140;6.290;2023-08-06T03:31:02;99568.16;;;19.86;81.06
25232;BME280;13176;51.140;6.290;2023-08-06T03:33:29;99598.09;;;20.00;81.38
25232;BME280;13176;51.140;6.290;2023-08-06T03:35:56;99427.03;;;19.11;80.15
25232;BME280;13176;51.140;6.290;2023-08-06T03:38:23;99598.59;;;20.05;81.01
25232;BME280;13176;51.140;6.290;2023-08-06T03:40:49;99442.91;;;19.11;80.60
25232;BME280;13176;51.140;6.290;2023-08-06T03:43:16;99472.91;;;19.36;80.25
25232;BME280;13176;51.140;6.290;2023-08-06T03:45:42;99426.72;;;19.03;81.48
25232;BME280;13176;51.140;6.290;2023-08-06T03:48:09;99602.72;;;20.09;81.51
25232;BME280;13176;51.140;6.290;2023-08-06T03:50:35;99497.66;;;19.48;81.65
25232;BME280;13176;51.140;6.290;2023-08-06T03:53:02;99581.94;;;19.91;81.92
25232;BME280;13176;51.140;6.290;2023-08-06T03:55:28;99457.44;;;19.18;82.04
25232;BME280;13176;51.140;6.290;2023-08-06T03:57:57;99503.09;;;19.46;81.38
25232;BME280;13176;51.140;6.290;2023-08-06T04:00:24;99388.63;;;18.80;81.89
25232;BME280;13176;51.140;6.290;2023-08-06T04:02:50;99520.00;;;19.44;82.50
25232;BME280;13176;51.140;6.290;2023-08-06T04:05:17;99544.16;;;19.52;82.32
25232;BME280;13176;51.140;6.290;2023-08-06T04:07:46;99612.22;;;19.87;82.39
25232;BME280;13176;51.140;6.290;2023-08-06T04:10:12;99605.16;;;19.87;82.12
25232;BME280;13176;51.140;6.290;2023-08-06T04:12:39;99616.28;;;19.92;82.59
25232;BME280;13176;51.140;6.290;2023-08-06T04:15:06;99596.34;;;19.74;81.59
25232;BME280;13176;51.140;6.290;2023-08-06T04:17:33;99518.63;;;19.26;82.24
25232;BME280;13176;51.140;6.290;2023-08-06T04:19:59;99515.22;;;19.24;82.21
25232;BME280;13176;51.140;6.290;2023-08-06T04:22:26;99585.34;;;19.55;82.66
25232;BME280;13176;51.140;6.290;2023-08-06T04:24:53;99573.84;;;19.18;84.35
25232;BME280;13176;51.140;6.290;2023-08-06T04:27:19;99512.63;;;18.71;86.15
25232;BME280;13176;51.140;6.290;2023-08-06T04:29:46;99584.63;;;19.01;87.85
25232;BME280;13176;51.140;6.290;2023-08-06T04:32:13;99515.44;;;18.55;89.13
25232;BME280;13176;51.140;6.290;2023-08-06T04:34:39;99419.16;;;17.80;89.67
25232;BME280;13176;51.140;6.290;2023-08-06T04:37:05;99589.84;;;18.76;90.83
25232;BME280;13176;51.140;6.290;2023-08-06T04:39:32;99540.50;;;18.36;92.15
25232;BME280;13176;51.140;6.290;2023-08-06T04:41:58;99535.50;;;18.18;92.35
25232;BME280;13176;51.140;6.290;2023-08-06T04:44:25;99595.56;;;18.56;94.72
25232;BME280;13176;51.140;6.290;2023-08-06T04:46:52;99601.03;;;18.53;94.48
25232;BME280;13176;51.140;6.290;2023-08-06T04:49:20;99621.50;;;18.63;95.22
25232;BME280;13176;51.140;6.290;2023-08-06T04:51:46;99621.56;;;18.62;97.21
25232;BME280;13176;51.140;6.290;2023-08-06T04:54:13;99600.28;;;18.51;98.37
25232;BME280;13176;51.140;6.290;2023-08-06T04:56:39;99601.88;;;18.53;97.14
25232;BME280;13176;51.140;6.290;2023-08-06T04:59:06;99501.69;;;17.96;97.08
25232;BME280;13176;51.140;6.290;2023-08-06T05:01:32;99509.59;;;17.96;98.04
25232;BME280;13176;51.140;6.290;2023-08-06T05:03:59;99580.56;;;18.42;98.34
25232;BME280;13176;51.140;6.290;2023-08-06T05:06:26;99614.59;;;18.61;98.70
25232;BME280;13176;51.140;6.290;2023-08-06T05:08:52;99616.22;;;18.49;99.50
25232;BME280;13176;51.140;6.290;2023-08-06T05:11:19;99611.81;;;18.50;100.00
25232;BME280;13176;51.140;6.290;2023-08-06T05:13:45;99581.81;;;18.37;99.96
25232;BME280;13176;51.140;6.290;2023-08-06T05:16:12;99597.66;;;18.51;100.00
25232;BME280;13176;51.140;6.290;2023-08-06T05:18:38;99479.84;;;17.80;100.00
25232;BME280;13176;51.140;6.290;2023-08-06T05:21:05;99587.22;;;18.36;100.00
25232;BME280;13176;51.140;6.290;2023-08-06T05:23:32;99577.03;;;18.30;100.00
25232;BME280;13176;51.140;6.290;2023-08-06T05:25:58;99601.63;;;18.44;100.00
25232;BME280;13176;51.140;6.290;2023-08-06T05:28:24;99607.84;;;18.43;100.00
25232;BME280;13176;51.140;6.290;2023-08-06T05:30:51;99588.97;;;18.35;100.00
25232;BME280;13176;51.140;6.290;2023-08-06T05:33:17;99591.63;;;18.35;100.00
25232;BME280;13176;51.140;6.290;2023-08-06T05:35:44;99610.31;;;18.46;100.00
25232;BME280;13176;51.140;6.290;2023-08-06T05:38:10;99597.38;;;18.41;100.00
25232;BME280;13176;51.140;6.290;2023-08-06T05:40:36;99630.06;;;18.67;100.00
25232;BME280;13176;51.140;6.290;2023-08-06T05:43:05;99624.91;;;18.65;100.00
25232;BME280;13176;51.140;6.290;2023-08-06T05:45:32;99628.75;;;18.60;100.00
25232;BME280;13176;51.140;6.290;2023-08-06T05:47:58;99632.34;;;18.59;100.00
25232;BME280;13176;51.140;6.290;2023-08-06T05:50:25;99576.06;;;18.17;100.00
25232;BME280;13176;51.140;6.290;2023-08-06T05:52:52;99662.16;;;18.61;100.00
25232;BME280;13176;51.140;6.290;2023-08-06T05:55:20;99566.84;;;17.96;100.00
25232;BME280;13176;51.140;6.290;2023-08-06T05:57:46;99558.63;;;18.00;100.00
25232;BME280;13176;51.140;6.290;2023-08-06T06:00:13;99664.06;;;18.59;100.00
25232;BME280;13176;51.140;6.290;2023-08-06T06:02:39;99628.78;;;18.32;100.00
25232;BME280;13176;51.140;6.290;2023-08-06T06:05:06;99667.25;;;18.64;100.00
25232;BME280;13176;51.140;6.290;2023-08-06T06:07:33;99629.94;;;18.42;100.00
25232;BME280;13176;51.140;6.290;2023-08-06T06:09:59;99542.50;;;17.91;100.00
25232;BME280;13176;51.140;6.290;2023-08-06T06:12:25;99569.81;;;18.04;100.00
25232;BME280;13176;51.140;6.290;2023-08-06T06:14:52;99662.34;;;18.58;100.00
25232;BME280;13176;51.140;6.290;2023-08-06T06:17:19;99614.44;;;18.22;100.00
25232;BME280;13176;51.140;6.290;2023-08-06T06:19:45;99642.19;;;18.57;100.00
25232;BME280;13176;51.140;6.290;2023-08-06T06:22:12;99646.69;;;18.69;100.00
25232;BME280;13176;51.140;6.290;2023-08-06T06:24:39;99672.63;;;18.76;100.00
25232;BME280;13176;51.140;6.290;2023-08-06T06:27:05;99663.88;;;18.62;100.00
25232;BME280;13176;51.140;6.290;2023-08-06T06:29:32;99565.69;;;18.14;100.00
25232;BME280;13176;51.140;6.290;2023-08-06T06:31:58;99653.09;;;18.65;100.00
25232;BME280;13176;51.140;6.290;2023-08-06T06:34:25;99595.41;;;18.31;100.00
25232;BME280;13176;51.140;6.290;2023-08-06T06:36:51;99662.47;;;18.70;100.00
25232;BME280;13176;51.140;6.290;2023-08-06T06:39:18;99673.53;;;18.89;100.00
25232;BME280;13176;51.140;6.290;2023-08-06T06:41:44;99648.75;;;18.78;100.00
25232;BME280;13176;51.140;6.290;2023-08-06T06:44:10;99655.34;;;18.85;100.00
25232;BME280;13176;51.140;6.290;2023-08-06T06:46:37;99601.25;;;18.50;100.00
25232;BME280;13176;51.140;6.290;2023-08-06T06:49:03;99606.47;;;18.64;100.00
25232;BME280;13176;51.140;6.290;2023-08-06T06:51:30;99659.00;;;18.96;100.00
25232;BME280;13176;51.140;6.290;2023-08-06T06:53:58;99688.53;;;19.17;100.00
25232;BME280;13176;51.140;6.290;2023-08-06T06:56:24;99690.22;;;19.18;100.00
25232;BME280;13176;51.140;6.290;2023-08-06T06:58:51;99613.06;;;18.71;100.00
25232;BME280;13176;51.140;6.290;2023-08-06T07:01:17;99696.81;;;19.25;100.00
25232;BME280;13176;51.140;6.290;2023-08-06T07:03:44;99695.06;;;19.38;100.00
25232;BME280;13176;51.140;6.290;2023-08-06T07:06:10;99689.97;;;19.35;100.00
25232;BME280;13176;51.140;6.290;2023-08-06T07:08:38;99709.59;;;19.45;100.00
25232;BME280;13176;51.140;6.290;2023-08-06T07:11:06;99688.19;;;19.35;100.00
25232;BME280;13176;51.140;6.290;2023-08-06T07:13:34;99724.66;;;19.56;100.00
25232;BME280;13176;51.140;6.290;2023-08-06T07:16:01;99686.72;;;19.44;100.00
25232;BME280;13176;51.140;6.290;2023-08-06T07:18:28;99711.28;;;19.46;100.00
25232;BME280;13176;51.140;6.290;2023-08-06T07:20:55;99723.53;;;19.60;100.00
25232;BME280;13176;51.140;6.290;2023-08-06T07:23:23;99718.28;;;19.47;100.00
25232;BME280;13176;51.140;6.290;2023-08-06T07:25:50;99734.91;;;19.49;100.00
25232;BME280;13176;51.140;6.290;2023-08-06T07:28:17;99731.63;;;19.45;100.00
25232;BME280;13176;51.140;6.290;2023-08-06T07:30:44;99537.28;;;18.31;100.00
25232;BME280;13176;51.140;6.290;2023-08-06T07:33:11;99699.31;;;19.14;100.00
25232;BME280;13176;51.140;6.290;2023-08-06T07:35:38;99726.59;;;19.41;100.00
25232;BME280;13176;51.140;6.290;2023-08-06T07:38:05;99702.69;;;19.16;100.00
25232;BME280;13176;51.140;6.290;2023-08-06T07:40:35;99656.69;;;18.78;100.00
25232;BME280;13176;51.140;6.290;2023-08-06T07:43:03;99731.59;;;19.19;100.00
25232;BME280;13176;51.140;6.290;2023-08-06T07:45:36;99751.50;;;19.38;100.00
25232;BME280;13176;51.140;6.290;2023-08-06T07:48:04;99723.66;;;19.19;100.00
25232;BME280;13176;51.140;6.290;2023-08-06T07:50:31;99641.00;;;18.75;100.00
25232;BME280;13176;51.140;6.290;2023-08-06T07:52:57;99671.59;;;18.79;100.00
25232;BME280;13176;51.140;6.290;2023-08-06T07:55:25;99722.50;;;19.09;100.00
25232;BME280;13176;51.140;6.290;2023-08-06T07:57:51;99724.97;;;18.98;100.00
25232;BME280;13176;51.140;6.290;2023-08-06T08:00:20;99631.34;;;18.34;100.00
25232;BME280;13176;51.140;6.290;2023-08-06T08:02:50;99704.81;;;18.83;100.00
25232;BME280;13176;51.140;6.290;2023-08-06T08:05:17;99692.28;;;18.72;100.00
25232;BME280;13176;51.140;6.290;2023-08-06T08:07:43;99716.41;;;18.80;100.00
25232;BME280;13176;51.140;6.290;2023-08-06T08:10:10;99720.50;;;18.86;100.00
25232;BME280;13176;51.140;6.290;2023-08-06T08:12:37;99704.25;;;18.64;100.00
25232;BME280;13176;51.140;6.290;2023-08-06T08:15:04;99703.03;;;18.69;100.00
25232;BME280;13176;51.140;6.290;2023-08-06T08:17:31;99752.41;;;18.83;100.00
25232;BME280;13176;51.140;6.290;2023-08-06T08:19:57;99755.63;;;18.88;100.00
25232;BME280;13176;51.140;6.290;2023-08-06T08:22:24;99708.44;;;18.54;100.00
25232;BME280;13176;51.140;6.290;2023-08-06T08:24:50;99746.75;;;18.75;100.00
25232;BME280;13176;51.140;6.290;2023-08-06T08:27:17;99773.94;;;18.91;100.00
25232;BME280;13176;51.140;6.290;2023-08-06T08:29:43;99774.50;;;18.82;100.00
25232;BME280;13176;51.140;6.290;2023-08-06T08:32:09;99757.63;;;18.70;100.00
25232;BME280;13176;51.140;6.290;2023-08-06T08:34:37;99789.53;;;18.67;100.00
25232;BME280;13176;51.140;6.290;2023-08-06T08:37:04;99740.13;;;18.40;100.00
25232;BME280;13176;51.140;6.290;2023-08-06T08:39:33;99817.75;;;18.81;100.00
25232;BME280;13176;51.140;6.290;2023-08-06T08:42:05;99798.47;;;18.51;100.00
25232;BME280;13176;51.140;6.290;2023-08-06T08:44:34;99819.03;;;18.60;100.00
25232;BME280;13176;51.140;6.290;2023-08-06T08:47:12;99743.84;;;18.22;100.00
25232;BME280;13176;51.140;6.290;2023-08-06T08:49:42;99709.31;;;18.11;100.00
25232;BME280;13176;51.140;6.290;2023-08-06T08:52:11;99631.53;;;17.59;100.00
25232;BME280;13176;51.140;6.290;2023-08-06T08:54:40;99813.00;;;18.72;100.00
25232;BME280;13176;51.140;6.290;2023-08-06T08:57:07;99701.13;;;18.16;100.00
25232;BME280;13176;51.140;6.290;2023-08-06T08:59:34;99786.88;;;18.67;100.00
25232;BME280;13176;51.140;6.290;2023-08-06T09:02:01;99751.53;;;18.40;100.00
25232;BME280;13176;51.140;6.290;2023-08-06T09:04:30;99629.59;;;17.77;100.00
25232;BME280;13176;51.140;6.290;2023-08-06T09:07:04;99762.06;;;18.56;100.00
25232;BME280;13176;51.140;6.290;2023-08-06T09:09:34;99701.97;;;18.16;100.00
25232;BME280;13176;51.140;6.290;2023-08-06T09:12:12;99712.56;;;17.57;100.00
25232;BME280;13176;51.140;6.290;2023-08-06T09:14:43;99837.88;;;17.95;100.00
25232;BME280;13176;51.140;6.290;2023-08-06T09:17:11;99733.53;;;17.29;100.00
25232;BME280;13176;51.140;6.290;2023-08-06T09:19:37;99793.06;;;17.64;100.00
25232;BME280;13176;51.140;6.290;2023-08-06T09:22:11;99865.41;;;17.91;100.00
25232;BME280;13176;51.140;6.290;2023-08-06T09:24:41;99782.25;;;17.22;100.00
25232;BME280;13176;51.140;6.290;2023-08-06T09:27:14;99861.34;;;17.70;100.00
25232;BME280;13176;51.140;6.290;2023-08-06T09:29:43;99871.56;;;17.76;100.00
25232;BME280;13176;51.140;6.290;2023-08-06T09:32:12;99859.09;;;18.09;100.00
25232;BME280;13176;51.140;6.290;2023-08-06T09:34:41;99871.72;;;17.42;100.00
25232;BME280;13176;51.140;6.290;2023-08-06T09:37:11;99886.47;;;17.46;100.00
25232;BME280;13176;51.140;6.290;2023-08-06T09:39:39;99822.69;;;16.91;100.00
25232;BME280;13176;51.140;6.290;2023-08-06T09:42:15;99787.94;;;17.00;100.00
25232;BME280;13176;51.140;6.290;2023-08-06T09:44:42;99896.25;;;17.75;100.00
25232;BME280;13176;51.140;6.290;2023-08-06T09:47:11;99846.47;;;17.21;100.00
25232;BME280;13176;51.140;6.290;2023-08-06T09:49:44;99862.88;;;17.11;100.00
25232;BME280;13176;51.140;6.290;2023-08-06T09:52:13;99920.16;;;17.41;100.00
25232;BME280;13176;51.140;6.290;2023-08-06T09:54:43;99733.72;;;16.48;100.00
25232;BME280;13176;51.140;6.290;2023-08-06T09:57:15;99921.94;;;17.72;100.00
25232;BME280;13176;51.140;6.290;2023-08-06T09:59:46;99821.63;;;16.78;100.00
25232;BME280;13176;51.140;6.290;2023-08-06T10:02:14;99763.13;;;16.56;100.00
25232;BME280;13176;51.140;6.290;2023-08-06T10:04:44;99887.13;;;17.17;100.00
25232;BME280;13176;51.140;6.290;2023-08-06T10:07:22;99845.53;;;16.75;100.00
25232;BME280;13176;51.140;6.290;2023-08-06T10:09:51;99928.44;;;17.02;100.00
25232;BME280;13176;51.140;6.290;2023-08-06T10:12:18;99951.94;;;17.21;100.00
25232;BME280;13176;51.140;6.290;2023-08-06T10:14:46;99919.28;;;17.09;100.00
25232;BME280;13176;51.140;6.290;2023-08-06T10:17:15;99898.25;;;16.75;100.00
25232;BME280;13176;51.140;6.290;2023-08-06T10:19:46;99921.59;;;16.98;100.00
25232;BME280;13176;51.140;6.290;2023-08-06T10:22:15;99963.75;;;17.14;100.00
25232;BME280;13176;51.140;6.290;2023-08-06T10:30:29;99967.47;;;17.27;100.00
25232;BME280;13176;51.140;6.290;2023-08-06T10:33:00;99957.22;;;17.21;100.00
25232;BME280;13176;51.140;6.290;2023-08-06T10:35:46;99954.69;;;17.20;100.00
25232;BME280;13176;51.140;6.290;2023-08-06T10:38:21;99951.19;;;17.36;100.00
25232;BME280;13176;51.140;6.290;2023-08-06T10:40:50;99965.16;;;17.38;100.00
25232;BME280;13176;51.140;6.290;2023-08-06T10:45:52;99921.28;;;17.04;100.00
25232;BME280;13176;51.140;6.290;2023-08-06T10:48:40;99978.41;;;17.37;100.00
25232;BME280;13176;51.140;6.290;2023-08-06T10:51:09;99985.94;;;17.44;100.00
25232;BME280;13176;51.140;6.290;2023-08-06T10:53:37;99983.84;;;17.66;100.00
25232;BME280;13176;51.140;6.290;2023-08-06T10:56:20;100000.13;;;17.90;100.00
25232;BME280;13176;51.140;6.290;2023-08-06T10:58:56;99990.88;;;18.29;100.00
25232;BME280;13176;51.140;6.290;2023-08-06T11:01:23;99994.38;;;18.45;100.00
25232;BME280;13176;51.140;6.290;2023-08-06T11:03:50;99931.31;;;17.93;100.00
25232;BME280;13176;51.140;6.290;2023-08-06T11:06:20;99944.44;;;17.94;100.00
25232;BME280;13176;51.140;6.290;2023-08-06T11:08:51;99987.84;;;17.73;100.00
25232;BME280;13176;51.140;6.290;2023-08-06T11:11:18;99937.78;;;17.87;100.00
25232;BME280;13176;51.140;6.290;2023-08-06T11:13:46;99928.59;;;17.79;100.00
25232;BME280;13176;51.140;6.290;2023-08-06T11:16:17;99941.72;;;18.11;100.00
25232;BME280;13176;51.140;6.290;2023-08-06T11:18:45;100020.44;;;18.51;100.00
25232;BME280;13176;51.140;6.290;2023-08-06T11:21:11;99985.00;;;18.24;100.00
25232;BME280;13176;51.140;6.290;2023-08-06T11:23:39;100003.00;;;18.78;100.00
25232;BME280;13176;51.140;6.290;2023-08-06T11:26:07;100015.44;;;18.76;100.00
25232;BME280;13176;51.140;6.290;2023-08-06T11:28:34;100014.13;;;18.23;100.00
25232;BME280;13176;51.140;6.290;2023-08-06T11:31:00;99933.09;;;17.61;100.00
25232;BME280;13176;51.140;6.290;2023-08-06T11:33:29;100023.34;;;18.31;100.00
25232;BME280;13176;51.140;6.290;2023-08-06T11:35:57;100024.53;;;18.41;100.00
25232;BME280;13176;51.140;6.290;2023-08-06T11:38:25;100015.31;;;18.48;100.00
25232;BME280;13176;51.140;6.290;2023-08-06T11:40:53;100027.09;;;18.27;100.00
25232;BME280;13176;51.140;6.290;2023-08-06T11:43:20;100042.25;;;18.54;100.00
25232;BME280;13176;51.140;6.290;2023-08-06T11:45:51;100031.72;;;18.07;100.00
25232;BME280;13176;51.140;6.290;2023-08-06T11:48:20;100058.63;;;18.45;99.35
25232;BME280;13176;51.140;6.290;2023-08-06T11:50:46;100035.41;;;18.20;99.40
25232;BME280;13176;51.140;6.290;2023-08-06T11:53:14;100035.28;;;18.38;98.66
25232;BME280;13176;51.140;6.290;2023-08-06T11:55:41;100029.09;;;18.22;99.21
25232;BME280;13176;51.140;6.290;2023-08-06T11:58:09;100041.59;;;18.36;97.90
25232;BME280;13176;51.140;6.290;2023-08-06T12:00:36;100026.53;;;18.05;100.00
25232;BME280;13176;51.140;6.290;2023-08-06T12:03:04;100044.94;;;18.22;98.82
25232;BME280;13176;51.140;6.290;2023-08-06T12:05:32;99982.91;;;17.67;99.87
25232;BME280;13176;51.140;6.290;2023-08-06T12:08:02;100032.44;;;18.10;100.00
25232;BME280;13176;51.140;6.290;2023-08-06T12:10:31;100053.44;;;17.96;100.00
25232;BME280;13176;51.140;6.290;2023-08-06T12:12:58;100008.66;;;18.10;99.91
25232;BME280;13176;51.140;6.290;2023-08-06T12:15:24;100017.38;;;18.28;99.83
25232;BME280;13176;51.140;6.290;2023-08-06T12:17:51;100052.28;;;18.79;98.57
25232;BME280;13176;51.140;6.290;2023-08-06T12:20:18;100043.25;;;18.97;98.64
25232;BME280;13176;51.140;6.290;2023-08-06T12:22:44;99990.09;;;18.42;98.69
25232;BME280;13176;51.140;6.290;2023-08-06T12:25:12;100052.13;;;18.66;99.56
25232;BME280;13176;51.140;6.290;2023-08-06T12:27:40;100052.03;;;18.68;98.90
25232;BME280;13176;51.140;6.290;2023-08-06T12:30:10;99997.09;;;18.28;98.94
25232;BME280;13176;51.140;6.290;2023-08-06T12:32:37;99957.97;;;18.04;99.20
25232;BME280;13176;51.140;6.290;2023-08-06T12:35:04;100044.09;;;18.68;99.27
25232;BME280;13176;51.140;6.290;2023-08-06T12:37:33;99973.91;;;18.33;98.11
25232;BME280;13176;51.140;6.290;2023-08-06T12:40:00;100047.03;;;18.48;100.00
25232;BME280;13176;51.140;6.290;2023-08-06T12:42:46;100039.34;;;18.43;100.00
25232;BME280;13176;51.140;6.290;2023-08-06T12:45:12;100028.75;;;18.59;100.00
25232;BME280;13176;51.140;6.290;2023-08-06T12:47:40;100043.19;;;18.98;99.08
25232;BME280;13176;51.140;6.290;2023-08-06T12:50:07;100067.63;;;18.88;98.51
25232;BME280;13176;51.140;6.290;2023-08-06T12:52:34;100067.75;;;19.00;98.25
25232;BME280;13176;51.140;6.290;2023-08-06T12:55:01;100009.28;;;18.31;99.73
25232;BME280;13176;51.140;6.290;2023-08-06T12:57:27;100074.09;;;18.82;100.00
25232;BME280;13176;51.140;6.290;2023-08-06T13:00:12;100100.38;;;18.85;100.00
25232;BME280;13176;51.140;6.290;2023-08-06T13:02:39;100077.03;;;18.62;100.00
25232;BME280;13176;51.140;6.290;2023-08-06T13:05:06;100059.16;;;18.52;99.54
25232;BME280;13176;51.140;6.290;2023-08-06T13:07:33;100088.97;;;18.54;99.19
25232;BME280;13176;51.140;6.290;2023-08-06T13:09:59;100091.16;;;18.77;99.47
25232;BME280;13176;51.140;6.290;2023-08-06T13:12:26;100008.91;;;18.21;98.93
25232;BME280;13176;51.140;6.290;2023-08-06T13:14:52;100077.53;;;18.69;97.82